首页
METAR-TAF:

METAR-TAF

机场 :

雷恩, 法国

纬度: 48-04N, 经度: 001-44W, 海拔: 37米

当前天气观测

该预报发布于40分钟前的03:00 UTC
风速2节,风向西转西北
温度 0°C
湿度 100%
气压 1009 hPa
能見度: 0300

METAR: LFRN 170300Z AUTO 29002KT 0350 0300 R28/0375N R10/0450N FG VV/// 00/M00 Q1009 TEMPO 3000 BR

时间: 04:40 (03:40 UTC)

预报

该预报发布于54分钟前的02:46 UTC
预报有效从17日的 02点(UTC)到 17日的 24点(UTC)
风速3节,风向多变
能見度: 0300
短暂存在
从 17日的 02点(UTC)到 17日的 10点(UTC)
能見度: 3000
多云层高于300英尺
轻雾
成为
从 17日的 09点(UTC)到 17日的 11点(UTC)
能见度10公里或以上
多云层高于1000英尺
成为
从 17日的 12点(UTC)到 17日的 14点(UTC)
多云层高于2000英尺
短暂存在
从 17日的 14点(UTC)到 17日的 18点(UTC)
多云层高于1000英尺
成为
从 17日的 18点(UTC)到 17日的 20点(UTC)
能見度: 3000
轻雾
短暂存在
从 17日的 22点(UTC)到 17日的 24点(UTC)
多云层高于300英尺
几率 40% :
短暂存在
从 17日的 22点(UTC)到 17日的 24点(UTC)
能見度: 0500

TAF: LFRN 170246Z 1702/1724 VRB03KT 0300 FG VV/// TEMPO 1702/1710 3000 BR BKN003 BECMG 1709/1711 9999 NSW BKN010 BECMG 1712/1714 BKN020 TEMPO 1714/1718 BKN010 BECMG 1718/1720 3000 BR TEMPO 1722/1724 BKN003 PROB40 TEMPO 1722/1724 0500 FG VV///

超过4000个机场的气象观测和天气预报(METAR&TAF报告)。

可查询的气象台以黄色和红色小点在地图上表示。

将鼠标移到小点上方,可查看气象台名称。

然后点击查看天气观测和预报。

如需切换地图:点击带黑十字的绿色按钮放大地图;点击带横线的绿色按钮缩小地图;或者点击绿色箭头查看邻近地区的地图。


METAR-TAF: